sensor_id;sensor_type;location;lat;lon;timestamp;P1;durP1;ratioP1;P2;durP2;ratioP2
71083;SDS011;58741;52.672;13.548;2023-11-21T00:02:21;7.90;;;3.53;;
71083;SDS011;58741;52.672;13.548;2023-11-21T00:04:48;10.35;;;4.45;;
71083;SDS011;58741;52.672;13.548;2023-11-21T00:07:15;9.18;;;3.83;;
71083;SDS011;58741;52.672;13.548;2023-11-21T00:09:42;7.20;;;3.42;;
71083;SDS011;58741;52.672;13.548;2023-11-21T00:12:09;6.82;;;3.90;;
71083;SDS011;58741;52.672;13.548;2023-11-21T00:14:37;14.40;;;5.22;;
71083;SDS011;58741;52.672;13.548;2023-11-21T00:17:04;11.00;;;5.03;;
71083;SDS011;58741;52.672;13.548;2023-11-21T00:19:32;11.45;;;5.78;;
71083;SDS011;58741;52.672;13.548;2023-11-21T00:22:01;16.77;;;6.38;;
71083;SDS011;58741;52.672;13.548;2023-11-21T00:24:28;20.42;;;6.28;;
71083;SDS011;58741;52.672;13.548;2023-11-21T00:26:55;12.63;;;6.28;;
71083;SDS011;58741;52.672;13.548;2023-11-21T00:29:22;14.52;;;6.25;;
71083;SDS011;58741;52.672;13.548;2023-11-21T00:31:50;14.40;;;5.45;;
71083;SDS011;58741;52.672;13.548;2023-11-21T00:34:17;12.45;;;6.20;;
71083;SDS011;58741;52.672;13.548;2023-11-21T00:36:44;13.57;;;6.30;;
71083;SDS011;58741;52.672;13.548;2023-11-21T00:39:11;19.10;;;6.95;;
71083;SDS011;58741;52.672;13.548;2023-11-21T00:41:39;14.18;;;5.97;;
71083;SDS011;58741;52.672;13.548;2023-11-21T00:44:06;9.98;;;5.38;;
71083;SDS011;58741;52.672;13.548;2023-11-21T00:46:33;11.48;;;5.57;;
71083;SDS011;58741;52.672;13.548;2023-11-21T00:49:00;16.48;;;6.10;;
71083;SDS011;58741;52.672;13.548;2023-11-21T00:51:27;14.38;;;5.75;;
71083;SDS011;58741;52.672;13.548;2023-11-21T00:53:54;10.68;;;5.25;;
71083;SDS011;58741;52.672;13.548;2023-11-21T00:56:20;19.13;;;6.40;;
71083;SDS011;58741;52.672;13.548;2023-11-21T00:58:48;12.32;;;5.72;;
71083;SDS011;58741;52.672;13.548;2023-11-21T01:01:19;8.80;;;4.45;;
71083;SDS011;58741;52.672;13.548;2023-11-21T01:03:46;8.88;;;4.65;;
71083;SDS011;58741;52.672;13.548;2023-11-21T01:06:14;14.88;;;4.43;;
71083;SDS011;58741;52.672;13.548;2023-11-21T01:08:42;9.20;;;4.38;;
71083;SDS011;58741;52.672;13.548;2023-11-21T01:11:10;8.50;;;3.88;;
71083;SDS011;58741;52.672;13.548;2023-11-21T01:13:42;7.88;;;3.63;;
71083;SDS011;58741;52.672;13.548;2023-11-21T01:16:09;8.77;;;3.85;;
71083;SDS011;58741;52.672;13.548;2023-11-21T01:18:36;11.00;;;3.92;;
71083;SDS011;58741;52.672;13.548;2023-11-21T01:21:03;8.93;;;4.18;;
71083;SDS011;58741;52.672;13.548;2023-11-21T01:23:30;6.13;;;3.55;;
71083;SDS011;58741;52.672;13.548;2023-11-21T01:25:57;6.68;;;3.60;;
71083;SDS011;58741;52.672;13.548;2023-11-21T01:28:24;7.28;;;3.60;;
71083;SDS011;58741;52.672;13.548;2023-11-21T01:30:51;6.38;;;3.03;;
71083;SDS011;58741;52.672;13.548;2023-11-21T01:33:19;7.97;;;3.63;;
71083;SDS011;58741;52.672;13.548;2023-11-21T01:35:46;5.60;;;2.50;;
71083;SDS011;58741;52.672;13.548;2023-11-21T01:38:13;12.77;;;2.80;;
71083;SDS011;58741;52.672;13.548;2023-11-21T01:40:41;5.55;;;2.60;;
71083;SDS011;58741;52.672;13.548;2023-11-21T01:43:08;4.60;;;2.67;;
71083;SDS011;58741;52.672;13.548;2023-11-21T01:45:35;8.20;;;2.60;;
71083;SDS011;58741;52.672;13.548;2023-11-21T01:48:02;3.60;;;2.42;;
71083;SDS011;58741;52.672;13.548;2023-11-21T01:50:30;6.07;;;2.70;;
71083;SDS011;58741;52.672;13.548;2023-11-21T01:52:57;4.85;;;2.25;;
71083;SDS011;58741;52.672;13.548;2023-11-21T01:55:24;5.72;;;2.67;;
71083;SDS011;58741;52.672;13.548;2023-11-21T01:57:55;3.10;;;1.88;;
71083;SDS011;58741;52.672;13.548;2023-11-21T02:00:24;3.03;;;1.92;;
71083;SDS011;58741;52.672;13.548;2023-11-21T02:02:51;4.05;;;1.95;;
71083;SDS011;58741;52.672;13.548;2023-11-21T02:05:19;7.38;;;2.45;;
71083;SDS011;58741;52.672;13.548;2023-11-21T02:07:47;4.53;;;1.98;;
71083;SDS011;58741;52.672;13.548;2023-11-21T02:10:15;4.07;;;2.28;;
71083;SDS011;58741;52.672;13.548;2023-11-21T02:12:43;3.92;;;1.98;;
71083;SDS011;58741;52.672;13.548;2023-11-21T02:15:12;3.83;;;2.45;;
71083;SDS011;58741;52.672;13.548;2023-11-21T02:17:46;3.20;;;1.83;;
71083;SDS011;58741;52.672;13.548;2023-11-21T02:20:21;4.82;;;2.72;;
71083;SDS011;58741;52.672;13.548;2023-11-21T02:22:55;4.18;;;2.20;;
71083;SDS011;58741;52.672;13.548;2023-11-21T02:25:31;3.45;;;2.10;;
71083;SDS011;58741;52.672;13.548;2023-11-21T02:28:00;3.60;;;2.40;;
71083;SDS011;58741;52.672;13.548;2023-11-21T02:30:29;3.65;;;2.15;;
71083;SDS011;58741;52.672;13.548;2023-11-21T02:32:59;4.25;;;2.75;;
71083;SDS011;58741;52.672;13.548;2023-11-21T02:35:27;4.10;;;2.38;;
71083;SDS011;58741;52.672;13.548;2023-11-21T02:37:54;3.53;;;2.38;;
71083;SDS011;58741;52.672;13.548;2023-11-21T02:40:21;3.95;;;2.65;;
71083;SDS011;58741;52.672;13.548;2023-11-21T02:42:48;5.50;;;2.08;;
71083;SDS011;58741;52.672;13.548;2023-11-21T02:45:19;2.40;;;1.70;;
71083;SDS011;58741;52.672;13.548;2023-11-21T02:47:50;7.22;;;2.58;;
71083;SDS011;58741;52.672;13.548;2023-11-21T02:50:19;2.80;;;2.00;;
71083;SDS011;58741;52.672;13.548;2023-11-21T02:52:46;5.60;;;2.30;;
71083;SDS011;58741;52.672;13.548;2023-11-21T02:55:13;4.43;;;2.70;;
71083;SDS011;58741;52.672;13.548;2023-11-21T02:57:41;3.42;;;1.88;;
71083;SDS011;58741;52.672;13.548;2023-11-21T03:00:08;5.90;;;2.08;;
71083;SDS011;58741;52.672;13.548;2023-11-21T03:02:36;4.07;;;2.20;;
71083;SDS011;58741;52.672;13.548;2023-11-21T03:05:06;3.65;;;1.73;;
71083;SDS011;58741;52.672;13.548;2023-11-21T03:07:38;3.03;;;2.05;;
71083;SDS011;58741;52.672;13.548;2023-11-21T03:10:07;4.28;;;1.90;;
71083;SDS011;58741;52.672;13.548;2023-11-21T03:12:38;3.95;;;2.20;;
71083;SDS011;58741;52.672;13.548;2023-11-21T03:15:06;3.63;;;2.00;;
71083;SDS011;58741;52.672;13.548;2023-11-21T03:17:33;2.30;;;1.60;;
71083;SDS011;58741;52.672;13.548;2023-11-21T03:20:02;3.85;;;2.40;;
71083;SDS011;58741;52.672;13.548;2023-11-21T03:22:30;4.40;;;2.10;;
71083;SDS011;58741;52.672;13.548;2023-11-21T03:24:57;3.33;;;1.65;;
71083;SDS011;58741;52.672;13.548;2023-11-21T03:27:25;3.97;;;2.15;;
71083;SDS011;58741;52.672;13.548;2023-11-21T03:29:52;3.80;;;2.28;;
71083;SDS011;58741;52.672;13.548;2023-11-21T03:32:20;5.32;;;2.03;;
71083;SDS011;58741;52.672;13.548;2023-11-21T03:34:54;5.28;;;2.25;;
71083;SDS011;58741;52.672;13.548;2023-11-21T03:37:26;3.25;;;1.98;;
71083;SDS011;58741;52.672;13.548;2023-11-21T03:39:55;5.45;;;2.13;;
71083;SDS011;58741;52.672;13.548;2023-11-21T03:42:23;4.30;;;2.70;;
71083;SDS011;58741;52.672;13.548;2023-11-21T03:44:53;5.20;;;2.30;;
71083;SDS011;58741;52.672;13.548;2023-11-21T03:47:19;3.53;;;2.25;;
71083;SDS011;58741;52.672;13.548;2023-11-21T03:49:46;4.57;;;2.15;;
71083;SDS011;58741;52.672;13.548;2023-11-21T03:52:15;3.53;;;2.45;;
71083;SDS011;58741;52.672;13.548;2023-11-21T03:54:42;3.47;;;1.95;;
71083;SDS011;58741;52.672;13.548;2023-11-21T03:57:09;2.30;;;1.70;;
71083;SDS011;58741;52.672;13.548;2023-11-21T03:59:39;3.47;;;2.13;;
71083;SDS011;58741;52.672;13.548;2023-11-21T04:02:07;3.60;;;2.08;;
71083;SDS011;58741;52.672;13.548;2023-11-21T04:04:34;3.22;;;2.03;;
71083;SDS011;58741;52.672;13.548;2023-11-21T04:07:02;3.03;;;2.00;;
71083;SDS011;58741;52.672;13.548;2023-11-21T04:09:30;2.78;;;1.58;;
71083;SDS011;58741;52.672;13.548;2023-11-21T04:11:57;3.15;;;1.77;;
71083;SDS011;58741;52.672;13.548;2023-11-21T04:14:24;3.75;;;1.73;;
71083;SDS011;58741;52.672;13.548;2023-11-21T04:16:50;3.78;;;2.13;;
71083;SDS011;58741;52.672;13.548;2023-11-21T04:19:17;3.20;;;1.63;;
71083;SDS011;58741;52.672;13.548;2023-11-21T04:21:44;2.78;;;1.75;;
71083;SDS011;58741;52.672;13.548;2023-11-21T04:24:12;3.60;;;2.08;;
71083;SDS011;58741;52.672;13.548;2023-11-21T04:26:39;2.47;;;1.60;;
71083;SDS011;58741;52.672;13.548;2023-11-21T04:29:06;2.80;;;1.77;;
71083;SDS011;58741;52.672;13.548;2023-11-21T04:31:32;4.05;;;1.60;;
71083;SDS011;58741;52.672;13.548;2023-11-21T04:33:59;2.85;;;1.85;;
71083;SDS011;58741;52.672;13.548;2023-11-21T04:36:26;3.30;;;1.67;;
71083;SDS011;58741;52.672;13.548;2023-11-21T04:38:53;2.90;;;1.77;;
71083;SDS011;58741;52.672;13.548;2023-11-21T04:41:20;3.00;;;1.77;;
71083;SDS011;58741;52.672;13.548;2023-11-21T04:43:47;3.50;;;1.70;;
71083;SDS011;58741;52.672;13.548;2023-11-21T04:46:14;4.13;;;2.10;;
71083;SDS011;58741;52.672;13.548;2023-11-21T04:48:41;4.28;;;1.98;;
71083;SDS011;58741;52.672;13.548;2023-11-21T04:51:08;2.88;;;1.83;;
71083;SDS011;58741;52.672;13.548;2023-11-21T04:53:35;2.13;;;1.50;;
71083;SDS011;58741;52.672;13.548;2023-11-21T04:56:02;2.42;;;1.48;;
71083;SDS011;58741;52.672;13.548;2023-11-21T04:58:29;2.28;;;1.60;;
71083;SDS011;58741;52.672;13.548;2023-11-21T05:00:57;2.78;;;1.77;;
71083;SDS011;58741;52.672;13.548;2023-11-21T05:03:24;2.47;;;1.50;;
71083;SDS011;58741;52.672;13.548;2023-11-21T05:05:52;4.13;;;1.70;;
71083;SDS011;58741;52.672;13.548;2023-11-21T05:08:19;5.68;;;1.55;;
71083;SDS011;58741;52.672;13.548;2023-11-21T05:10:48;4.10;;;1.45;;
71083;SDS011;58741;52.672;13.548;2023-11-21T05:13:16;2.63;;;1.65;;
71083;SDS011;58741;52.672;13.548;2023-11-21T05:15:44;1.92;;;1.70;;
71083;SDS011;58741;52.672;13.548;2023-11-21T05:18:11;4.97;;;1.83;;
71083;SDS011;58741;52.672;13.548;2023-11-21T05:20:40;3.67;;;1.50;;
71083;SDS011;58741;52.672;13.548;2023-11-21T05:23:07;2.58;;;1.67;;
71083;SDS011;58741;52.672;13.548;2023-11-21T05:25:34;2.03;;;1.40;;
71083;SDS011;58741;52.672;13.548;2023-11-21T05:28:05;2.80;;;1.70;;
71083;SDS011;58741;52.672;13.548;2023-11-21T05:30:33;2.63;;;1.52;;
71083;SDS011;58741;52.672;13.548;2023-11-21T05:32:59;1.40;;;1.20;;
71083;SDS011;58741;52.672;13.548;2023-11-21T05:35:26;3.25;;;1.73;;
71083;SDS011;58741;52.672;13.548;2023-11-21T05:37:53;3.92;;;1.58;;
71083;SDS011;58741;52.672;13.548;2023-11-21T05:40:20;3.50;;;1.77;;
71083;SDS011;58741;52.672;13.548;2023-11-21T05:42:48;2.22;;;1.67;;
71083;SDS011;58741;52.672;13.548;2023-11-21T05:45:18;3.33;;;1.70;;
71083;SDS011;58741;52.672;13.548;2023-11-21T05:47:45;4.20;;;1.80;;
71083;SDS011;58741;52.672;13.548;2023-11-21T05:50:14;2.22;;;1.70;;
71083;SDS011;58741;52.672;13.548;2023-11-21T05:52:43;3.35;;;1.58;;
71083;SDS011;58741;52.672;13.548;2023-11-21T05:55:11;2.55;;;1.92;;
71083;SDS011;58741;52.672;13.548;2023-11-21T05:57:40;2.83;;;1.52;;
71083;SDS011;58741;52.672;13.548;2023-11-21T06:00:11;1.73;;;1.42;;
71083;SDS011;58741;52.672;13.548;2023-11-21T06:02:39;4.88;;;1.92;;
71083;SDS011;58741;52.672;13.548;2023-11-21T06:05:07;5.00;;;1.65;;
71083;SDS011;58741;52.672;13.548;2023-11-21T06:07:34;3.15;;;2.17;;
71083;SDS011;58741;52.672;13.548;2023-11-21T06:10:04;4.40;;;1.70;;
71083;SDS011;58741;52.672;13.548;2023-11-21T06:12:35;4.80;;;2.17;;
71083;SDS011;58741;52.672;13.548;2023-11-21T06:15:02;2.95;;;1.83;;
71083;SDS011;58741;52.672;13.548;2023-11-21T06:17:31;3.00;;;1.90;;
71083;SDS011;58741;52.672;13.548;2023-11-21T06:19:58;2.80;;;1.90;;
71083;SDS011;58741;52.672;13.548;2023-11-21T06:22:27;2.95;;;2.08;;
71083;SDS011;58741;52.672;13.548;2023-11-21T06:24:54;2.42;;;1.88;;
71083;SDS011;58741;52.672;13.548;2023-11-21T06:27:21;2.72;;;2.10;;
71083;SDS011;58741;52.672;13.548;2023-11-21T06:29:47;3.67;;;2.00;;
71083;SDS011;58741;52.672;13.548;2023-11-21T06:32:14;2.88;;;1.58;;
71083;SDS011;58741;52.672;13.548;2023-11-21T06:34:43;3.90;;;2.00;;
71083;SDS011;58741;52.672;13.548;2023-11-21T06:37:10;3.58;;;1.95;;
71083;SDS011;58741;52.672;13.548;2023-11-21T06:39:38;2.85;;;2.00;;
71083;SDS011;58741;52.672;13.548;2023-11-21T06:42:05;4.20;;;1.90;;
71083;SDS011;58741;52.672;13.548;2023-11-21T06:44:32;2.58;;;1.58;;
71083;SDS011;58741;52.672;13.548;2023-11-21T06:46:59;2.45;;;1.58;;
71083;SDS011;58741;52.672;13.548;2023-11-21T06:49:27;3.13;;;1.70;;
71083;SDS011;58741;52.672;13.548;2023-11-21T06:51:54;2.53;;;1.60;;
71083;SDS011;58741;52.672;13.548;2023-11-21T06:54:22;1.45;;;1.25;;
71083;SDS011;58741;52.672;13.548;2023-11-21T06:56:48;2.08;;;1.45;;
71083;SDS011;58741;52.672;13.548;2023-11-21T06:59:15;1.58;;;1.08;;
71083;SDS011;58741;52.672;13.548;2023-11-21T07:01:42;1.20;;;1.10;;
71083;SDS011;58741;52.672;13.548;2023-11-21T07:04:09;2.15;;;1.52;;
71083;SDS011;58741;52.672;13.548;2023-11-21T07:06:36;2.05;;;1.15;;
71083;SDS011;58741;52.672;13.548;2023-11-21T07:09:04;2.63;;;1.67;;
71083;SDS011;58741;52.672;13.548;2023-11-21T07:11:31;3.30;;;1.70;;
71083;SDS011;58741;52.672;13.548;2023-11-21T07:13:59;2.45;;;1.50;;
71083;SDS011;58741;52.672;13.548;2023-11-21T07:16:26;2.25;;;1.33;;
71083;SDS011;58741;52.672;13.548;2023-11-21T07:18:53;2.55;;;1.35;;
71083;SDS011;58741;52.672;13.548;2023-11-21T07:21:21;2.95;;;1.70;;
71083;SDS011;58741;52.672;13.548;2023-11-21T07:23:48;2.75;;;1.95;;
71083;SDS011;58741;52.672;13.548;2023-11-21T07:26:14;3.90;;;2.38;;
71083;SDS011;58741;52.672;13.548;2023-11-21T07:28:41;4.53;;;2.92;;
71083;SDS011;58741;52.672;13.548;2023-11-21T07:31:08;2.30;;;1.75;;
71083;SDS011;58741;52.672;13.548;2023-11-21T07:33:35;3.97;;;1.98;;
71083;SDS011;58741;52.672;13.548;2023-11-21T07:36:03;2.95;;;1.77;;
71083;SDS011;58741;52.672;13.548;2023-11-21T07:38:31;2.05;;;1.60;;
71083;SDS011;58741;52.672;13.548;2023-11-21T07:40:59;3.15;;;1.70;;
71083;SDS011;58741;52.672;13.548;2023-11-21T07:43:27;2.22;;;1.50;;
71083;SDS011;58741;52.672;13.548;2023-11-21T07:46:04;4.35;;;2.10;;
71083;SDS011;58741;52.672;13.548;2023-11-21T07:48:31;3.47;;;1.77;;
71083;SDS011;58741;52.672;13.548;2023-11-21T07:50:58;2.25;;;1.80;;
71083;SDS011;58741;52.672;13.548;2023-11-21T07:53:26;2.13;;;1.40;;
71083;SDS011;58741;52.672;13.548;2023-11-21T07:56:13;2.92;;;1.90;;
71083;SDS011;58741;52.672;13.548;2023-11-21T07:58:40;3.20;;;2.10;;
71083;SDS011;58741;52.672;13.548;2023-11-21T08:01:07;3.65;;;1.67;;
71083;SDS011;58741;52.672;13.548;2023-11-21T08:03:34;5.35;;;2.58;;
71083;SDS011;58741;52.672;13.548;2023-11-21T08:06:01;3.22;;;1.42;;
71083;SDS011;58741;52.672;13.548;2023-11-21T08:08:33;3.50;;;2.10;;
71083;SDS011;58741;52.672;13.548;2023-11-21T08:10:59;3.38;;;1.83;;
71083;SDS011;58741;52.672;13.548;2023-11-21T08:13:28;5.60;;;2.55;;
71083;SDS011;58741;52.672;13.548;2023-11-21T08:15:57;5.22;;;2.28;;
71083;SDS011;58741;52.672;13.548;2023-11-21T08:18:31;6.30;;;2.40;;
71083;SDS011;58741;52.672;13.548;2023-11-21T08:20:58;4.57;;;2.35;;
71083;SDS011;58741;52.672;13.548;2023-11-21T08:23:25;4.53;;;2.28;;
71083;SDS011;58741;52.672;13.548;2023-11-21T08:25:52;6.68;;;2.80;;
71083;SDS011;58741;52.672;13.548;2023-11-21T08:28:20;6.57;;;3.03;;
71083;SDS011;58741;52.672;13.548;2023-11-21T08:30:49;7.50;;;2.67;;
71083;SDS011;58741;52.672;13.548;2023-11-21T08:33:16;6.10;;;2.63;;
71083;SDS011;58741;52.672;13.548;2023-11-21T08:35:43;6.32;;;2.25;;
71083;SDS011;58741;52.672;13.548;2023-11-21T08:38:10;7.28;;;2.67;;
71083;SDS011;58741;52.672;13.548;2023-11-21T08:40:38;6.05;;;2.65;;
71083;SDS011;58741;52.672;13.548;2023-11-21T08:43:05;5.90;;;3.00;;
71083;SDS011;58741;52.672;13.548;2023-11-21T08:45:33;10.43;;;4.20;;
71083;SDS011;58741;52.672;13.548;2023-11-21T08:48:01;9.45;;;4.05;;
71083;SDS011;58741;52.672;13.548;2023-11-21T08:50:28;8.25;;;3.85;;
71083;SDS011;58741;52.672;13.548;2023-11-21T08:52:55;13.20;;;5.47;;
71083;SDS011;58741;52.672;13.548;2023-11-21T08:55:22;9.52;;;4.60;;
71083;SDS011;58741;52.672;13.548;2023-11-21T08:57:49;12.13;;;4.40;;
71083;SDS011;58741;52.672;13.548;2023-11-21T09:00:17;6.32;;;3.25;;
71083;SDS011;58741;52.672;13.548;2023-11-21T09:02:45;5.85;;;3.38;;
71083;SDS011;58741;52.672;13.548;2023-11-21T09:05:12;6.38;;;2.70;;
71083;SDS011;58741;52.672;13.548;2023-11-21T09:07:41;6.18;;;2.60;;
71083;SDS011;58741;52.672;13.548;2023-11-21T09:10:08;3.90;;;2.28;;
71083;SDS011;58741;52.672;13.548;2023-11-21T09:12:36;5.50;;;1.58;;
71083;SDS011;58741;52.672;13.548;2023-11-21T09:15:07;6.15;;;2.25;;
71083;SDS011;58741;52.672;13.548;2023-11-21T09:17:36;3.38;;;1.95;;
71083;SDS011;58741;52.672;13.548;2023-11-21T09:20:04;4.25;;;1.60;;
71083;SDS011;58741;52.672;13.548;2023-11-21T09:22:32;3.90;;;1.73;;
71083;SDS011;58741;52.672;13.548;2023-11-21T09:24:59;3.20;;;1.65;;
71083;SDS011;58741;52.672;13.548;2023-11-21T09:27:26;2.65;;;1.50;;
71083;SDS011;58741;52.672;13.548;2023-11-21T09:29:53;3.90;;;1.50;;
71083;SDS011;58741;52.672;13.548;2023-11-21T09:32:20;2.75;;;1.30;;
71083;SDS011;58741;52.672;13.548;2023-11-21T09:34:48;2.53;;;1.77;;
71083;SDS011;58741;52.672;13.548;2023-11-21T09:37:16;3.20;;;1.60;;
71083;SDS011;58741;52.672;13.548;2023-11-21T09:39:43;2.75;;;1.25;;
71083;SDS011;58741;52.672;13.548;2023-11-21T09:42:15;2.25;;;1.73;;
71083;SDS011;58741;52.672;13.548;2023-11-21T09:44:58;3.03;;;1.85;;
71083;SDS011;58741;52.672;13.548;2023-11-21T09:47:32;5.25;;;2.30;;
71083;SDS011;58741;52.672;13.548;2023-11-21T09:50:02;5.70;;;2.58;;
71083;SDS011;58741;52.672;13.548;2023-11-21T09:52:30;2.20;;;1.58;;
71083;SDS011;58741;52.672;13.548;2023-11-21T09:54:59;2.47;;;1.60;;
71083;SDS011;58741;52.672;13.548;2023-11-21T09:57:28;2.17;;;1.77;;
71083;SDS011;58741;52.672;13.548;2023-11-21T09:59:56;3.13;;;1.70;;
71083;SDS011;58741;52.672;13.548;2023-11-21T10:02:26;2.92;;;2.00;;
71083;SDS011;58741;52.672;13.548;2023-11-21T10:04:59;1.58;;;1.35;;
71083;SDS011;58741;52.672;13.548;2023-11-21T10:07:26;3.33;;;1.60;;
71083;SDS011;58741;52.672;13.548;2023-11-21T10:09:57;3.00;;;1.70;;
71083;SDS011;58741;52.672;13.548;2023-11-21T10:12:25;1.23;;;0.95;;
71083;SDS011;58741;52.672;13.548;2023-11-21T10:14:54;2.35;;;1.17;;
71083;SDS011;58741;52.672;13.548;2023-11-21T10:17:26;3.35;;;1.10;;
71083;SDS011;58741;52.672;13.548;2023-11-21T10:19:57;1.48;;;1.10;;
71083;SDS011;58741;52.672;13.548;2023-11-21T10:22:25;1.42;;;1.00;;
71083;SDS011;58741;52.672;13.548;2023-11-21T10:24:52;1.92;;;1.55;;
71083;SDS011;58741;52.672;13.548;2023-11-21T10:27:20;2.35;;;1.38;;
71083;SDS011;58741;52.672;13.548;2023-11-21T10:29:46;2.42;;;1.23;;
71083;SDS011;58741;52.672;13.548;2023-11-21T10:32:13;1.05;;;0.93;;
71083;SDS011;58741;52.672;13.548;2023-11-21T10:34:40;2.45;;;1.60;;
71083;SDS011;58741;52.672;13.548;2023-11-21T10:37:11;2.20;;;1.30;;
71083;SDS011;58741;52.672;13.548;2023-11-21T10:39:39;3.08;;;1.60;;
71083;SDS011;58741;52.672;13.548;2023-11-21T10:42:08;2.25;;;1.02;;
71083;SDS011;58741;52.672;13.548;2023-11-21T10:44:36;1.38;;;1.10;;
71083;SDS011;58741;52.672;13.548;2023-11-21T10:47:04;1.98;;;1.08;;
71083;SDS011;58741;52.672;13.548;2023-11-21T10:49:31;4.20;;;1.10;;
71083;SDS011;58741;52.672;13.548;2023-11-21T10:51:59;0.98;;;0.88;;
71083;SDS011;58741;52.672;13.548;2023-11-21T10:54:26;1.17;;;0.70;;
71083;SDS011;58741;52.672;13.548;2023-11-21T10:56:53;1.33;;;1.02;;
71083;SDS011;58741;52.672;13.548;2023-11-21T10:59:23;1.48;;;0.93;;
71083;SDS011;58741;52.672;13.548;2023-11-21T11:01:52;1.15;;;1.05;;
71083;SDS011;58741;52.672;13.548;2023-11-21T11:04:20;1.23;;;1.08;;
71083;SDS011;58741;52.672;13.548;2023-11-21T11:06:51;1.70;;;1.17;;
71083;SDS011;58741;52.672;13.548;2023-11-21T11:09:23;1.90;;;1.00;;
71083;SDS011;58741;52.672;13.548;2023-11-21T11:11:50;1.60;;;1.15;;
71083;SDS011;58741;52.672;13.548;2023-11-21T11:14:19;1.95;;;0.98;;
71083;SDS011;58741;52.672;13.548;2023-11-21T11:16:46;2.22;;;1.20;;
71083;SDS011;58741;52.672;13.548;2023-11-21T11:19:15;2.33;;;1.45;;
71083;SDS011;58741;52.672;13.548;2023-11-21T11:21:47;1.83;;;1.38;;
71083;SDS011;58741;52.672;13.548;2023-11-21T11:30:02;1.50;;;0.95;;
71083;SDS011;58741;52.672;13.548;2023-11-21T11:32:53;1.88;;;1.20;;
71083;SDS011;58741;52.672;13.548;2023-11-21T11:35:52;3.47;;;1.10;;
71083;SDS011;58741;52.672;13.548;2023-11-21T11:38:51;1.90;;;0.95;;
71083;SDS011;58741;52.672;13.548;2023-11-21T11:41:25;2.40;;;1.00;;
71083;SDS011;58741;52.672;13.548;2023-11-21T11:43:54;2.08;;;1.15;;
71083;SDS011;58741;52.672;13.548;2023-11-21T11:46:34;2.22;;;1.27;;
71083;SDS011;58741;52.672;13.548;2023-11-21T11:49:27;3.55;;;1.13;;
71083;SDS011;58741;52.672;13.548;2023-11-21T11:55:01;2.25;;;1.10;;
71083;SDS011;58741;52.672;13.548;2023-11-21T11:57:30;1.17;;;0.82;;
71083;SDS011;58741;52.672;13.548;2023-11-21T12:02:50;1.55;;;1.27;;
71083;SDS011;58741;52.672;13.548;2023-11-21T12:05:19;2.30;;;1.30;;
71083;SDS011;58741;52.672;13.548;2023-11-21T12:07:54;1.38;;;1.02;;
71083;SDS011;58741;52.672;13.548;2023-11-21T12:10:30;2.85;;;1.35;;
71083;SDS011;58741;52.672;13.548;2023-11-21T12:13:01;2.50;;;1.55;;
71083;SDS011;58741;52.672;13.548;2023-11-21T12:15:29;1.83;;;0.98;;
71083;SDS011;58741;52.672;13.548;2023-11-21T12:17:57;2.40;;;1.60;;
71083;SDS011;58741;52.672;13.548;2023-11-21T12:20:27;1.92;;;1.55;;
71083;SDS011;58741;52.672;13.548;2023-11-21T12:22:55;3.63;;;1.70;;
71083;SDS011;58741;52.672;13.548;2023-11-21T12:25:26;1.50;;;1.40;;
71083;SDS011;58741;52.672;13.548;2023-11-21T12:27:55;3.42;;;1.73;;
71083;SDS011;58741;52.672;13.548;2023-11-21T12:30:30;1.83;;;1.15;;
71083;SDS011;58741;52.672;13.548;2023-11-21T12:32:59;3.03;;;1.83;;
71083;SDS011;58741;52.672;13.548;2023-11-21T12:35:28;2.30;;;1.48;;
71083;SDS011;58741;52.672;13.548;2023-11-21T12:38:01;3.60;;;1.38;;
71083;SDS011;58741;52.672;13.548;2023-11-21T12:40:29;2.55;;;1.70;;
71083;SDS011;58741;52.672;13.548;2023-11-21T12:42:56;2.10;;;1.50;;
71083;SDS011;58741;52.672;13.548;2023-11-21T12:45:26;2.85;;;1.50;;
71083;SDS011;58741;52.672;13.548;2023-11-21T12:47:59;2.63;;;1.88;;
71083;SDS011;58741;52.672;13.548;2023-11-21T12:50:29;2.47;;;1.63;;
71083;SDS011;58741;52.672;13.548;2023-11-21T12:53:03;3.30;;;1.55;;
71083;SDS011;58741;52.672;13.548;2023-11-21T12:55:32;2.97;;;2.17;;
71083;SDS011;58741;52.672;13.548;2023-11-21T12:58:07;2.55;;;1.95;;
71083;SDS011;58741;52.672;13.548;2023-11-21T13:00:42;2.90;;;1.70;;
71083;SDS011;58741;52.672;13.548;2023-11-21T13:03:11;3.58;;;2.40;;
71083;SDS011;58741;52.672;13.548;2023-11-21T13:05:44;6.25;;;2.33;;
71083;SDS011;58741;52.672;13.548;2023-11-21T13:08:14;6.10;;;2.60;;
71083;SDS011;58741;52.672;13.548;2023-11-21T13:10:46;3.67;;;2.17;;
71083;SDS011;58741;52.672;13.548;2023-11-21T13:13:15;2.30;;;1.88;;
71083;SDS011;58741;52.672;13.548;2023-11-21T13:15:51;4.10;;;2.53;;
71083;SDS011;58741;52.672;13.548;2023-11-21T13:18:28;5.05;;;2.72;;
71083;SDS011;58741;52.672;13.548;2023-11-21T13:20:55;8.10;;;3.65;;
71083;SDS011;58741;52.672;13.548;2023-11-21T13:23:24;6.03;;;3.67;;
71083;SDS011;58741;52.672;13.548;2023-11-21T13:25:53;5.90;;;3.55;;
71083;SDS011;58741;52.672;13.548;2023-11-21T13:28:30;7.55;;;3.47;;
71083;SDS011;58741;52.672;13.548;2023-11-21T13:31:00;5.85;;;3.97;;
71083;SDS011;58741;52.672;13.548;2023-11-21T13:33:47;6.70;;;3.90;;
71083;SDS011;58741;52.672;13.548;2023-11-21T13:36:22;7.57;;;4.60;;
71083;SDS011;58741;52.672;13.548;2023-11-21T13:38:50;10.32;;;5.10;;
71083;SDS011;58741;52.672;13.548;2023-11-21T13:41:21;6.95;;;4.25;;
71083;SDS011;58741;52.672;13.548;2023-11-21T13:43:57;8.95;;;4.05;;
71083;SDS011;58741;52.672;13.548;2023-11-21T13:46:42;7.70;;;3.65;;
71083;SDS011;58741;52.672;13.548;2023-11-21T13:49:09;16.10;;;6.43;;
71083;SDS011;58741;52.672;13.548;2023-11-21T13:51:36;10.02;;;5.28;;
71083;SDS011;58741;52.672;13.548;2023-11-21T13:54:16;17.48;;;8.15;;
71083;SDS011;58741;52.672;13.548;2023-11-21T13:56:44;12.18;;;6.53;;
71083;SDS011;58741;52.672;13.548;2023-11-21T13:59:13;9.57;;;5.95;;
71083;SDS011;58741;52.672;13.548;2023-11-21T14:01:47;13.93;;;6.57;;
71083;SDS011;58741;52.672;13.548;2023-11-21T14:04:20;13.32;;;6.30;;
71083;SDS011;58741;52.672;13.548;2023-11-21T14:07:06;10.57;;;5.97;;
71083;SDS011;58741;52.672;13.548;2023-11-21T14:09:51;9.90;;;6.43;;
71083;SDS011;58741;52.672;13.548;2023-11-21T14:12:19;10.40;;;6.70;;
71083;SDS011;58741;52.672;13.548;2023-11-21T14:14:46;11.50;;;6.32;;
71083;SDS011;58741;52.672;13.548;2023-11-21T14:17:14;11.65;;;7.15;;
71083;SDS011;58741;52.672;13.548;2023-11-21T14:19:40;12.35;;;6.53;;
71083;SDS011;58741;52.672;13.548;2023-11-21T14:22:10;12.07;;;5.88;;
71083;SDS011;58741;52.672;13.548;2023-11-21T14:24:37;10.55;;;5.47;;
71083;SDS011;58741;52.672;13.548;2023-11-21T14:27:10;9.70;;;5.65;;
71083;SDS011;58741;52.672;13.548;2023-11-21T14:29:37;8.70;;;5.38;;
71083;SDS011;58741;52.672;13.548;2023-11-21T14:32:09;11.55;;;6.05;;
71083;SDS011;58741;52.672;13.548;2023-11-21T14:34:36;10.75;;;6.10;;
71083;SDS011;58741;52.672;13.548;2023-11-21T14:37:04;9.48;;;5.07;;
71083;SDS011;58741;52.672;13.548;2023-11-21T14:39:31;9.65;;;5.57;;
71083;SDS011;58741;52.672;13.548;2023-11-21T14:42:04;8.05;;;4.65;;
71083;SDS011;58741;52.672;13.548;2023-11-21T14:44:31;7.20;;;4.63;;
71083;SDS011;58741;52.672;13.548;2023-11-21T14:47:04;10.70;;;5.25;;
71083;SDS011;58741;52.672;13.548;2023-11-21T14:49:39;9.87;;;5.87;;
71083;SDS011;58741;52.672;13.548;2023-11-21T14:52:19;9.93;;;5.50;;
71083;SDS011;58741;52.672;13.548;2023-11-21T14:55:01;9.93;;;6.13;;
71083;SDS011;58741;52.672;13.548;2023-11-21T14:57:51;8.63;;;4.82;;